Time;durP1;ratioP1;P1;durP2;ratioP2;P2;SDS_P1;SDS_P2;PMS_P1;PMS_P2;Temp;Humidity;BMP_temperature;BMP_pressure;BME280_temperature;BME280_humidity;BME280_pressure;Samples;Min_cycle;Max_cycle;Signal;HPM_P1;HPM_P2
2022/05/31 04:16:37;;;;;;;13.13;9.07;;;;;;;10.36;100.00;100436.94;5557213;32;259041;-86
2022/05/31 04:19:41;;;;;;;10.77;8.35;;;;;;;10.42;100.00;100444.59;5544591;32;33998;-86
2022/05/31 04:22:44;;;;;;;10.95;7.07;;;;;;;10.67;100.00;100442.56;5544434;32;34304;-84
2022/05/31 04:25:48;;;;;;;6.75;5.95;;;;;;;10.91;100.00;100438.69;5545206;32;33680;-86
2022/05/31 04:28:52;;;;;;;8.00;6.50;;;;;;;11.06;100.00;100433.53;5546231;32;33397;-84
2022/05/31 04:32:00;;;;;;;10.55;7.00;;;;;;;11.24;100.00;100437.06;5549032;32;32739;-85
2022/05/31 04:35:03;;;;;;;9.85;7.07;;;;;;;11.43;100.00;100441.41;5548889;32;34228;-88
2022/05/31 04:38:07;;;;;;;8.05;6.47;;;;;;;11.75;100.00;100437.97;5547641;32;34426;-89
2022/05/31 04:41:29;;;;;;;7.43;6.50;;;;;;;11.90;100.00;100433.63;5547616;32;35069;-88
2022/05/31 04:44:33;;;;;;;8.00;5.78;;;;;;;12.09;100.00;100437.06;5546832;32;33503;-85
2022/05/31 04:47:35;;;;;;;8.57;4.80;;;;;;;12.30;100.00;100433.25;5544599;32;34791;-84
2022/05/31 04:50:39;;;;;;;6.93;5.40;;;;;;;12.51;99.21;100439.16;5544750;32;33646;-85
2022/05/31 04:53:42;;;;;;;5.32;4.80;;;;;;;12.67;98.49;100432.03;5544362;32;34390;-85
2022/05/31 04:56:46;;;;;;;7.55;5.30;;;;;;;12.84;97.24;100434.66;5544492;32;33547;-83
2022/05/31 04:59:49;;;;;;;6.75;5.80;;;;;;;12.97;96.23;100440.97;5546286;32;33746;-83
2022/05/31 05:02:52;;;;;;;8.00;6.10;;;;;;;13.29;94.59;100442.69;5545079;32;34862;-84
2022/05/31 05:06:00;;;;;;;7.12;5.55;;;;;;;13.39;94.61;100443.84;5545486;32;34012;-85
2022/05/31 05:09:04;;;;;;;6.93;6.07;;;;;;;13.74;91.99;100442.66;5546542;32;33752;-85
2022/05/31 05:12:07;;;;;;;7.43;6.68;;;;;;;14.53;88.20;100429.66;5547152;32;34124;-85
2022/05/31 05:15:10;;;;;;;10.00;6.78;;;;;;;14.99;84.01;100427.56;5548333;32;33909;-85
2022/05/31 05:18:13;;;;;;;7.03;6.28;;;;;;;15.15;83.35;100439.91;5552197;32;34268;-85
2022/05/31 05:21:17;;;;;;;7.37;5.35;;;;;;;15.81;81.90;100436.25;5546791;32;34850;-85
2022/05/31 05:24:21;;;;;;;7.93;4.53;;;;;;;18.69;71.10;100435.91;5547782;32;33971;-84
2022/05/31 05:27:25;;;;;;;4.78;4.20;;;;;;;21.98;54.03;100431.84;5533894;32;33611;-85
2022/05/31 05:30:41;;;;;;;4.65;3.70;;;;;;;23.99;46.63;100438.78;5522204;32;33575;-86
2022/05/31 05:33:45;;;;;;;4.50;4.10;;;;;;;26.60;39.23;100433.56;5516570;32;33645;-86
2022/05/31 05:36:49;;;;;;;4.53;4.12;;;;;;;27.38;38.85;100431.72;5516352;32;34514;-86
2022/05/31 05:39:52;;;;;;;5.22;4.35;;;;;;;28.76;34.24;100433.06;5524854;32;33810;-87
2022/05/31 05:42:56;;;;;;;5.15;3.85;;;;;;;28.58;33.21;100439.81;5527465;32;33708;-86
2022/05/31 05:45:59;;;;;;;3.60;3.30;;;;;;;26.37;38.04;100436.28;5525023;32;34321;-86
2022/05/31 05:49:02;;;;;;;5.97;3.65;;;;;;;26.00;38.62;100443.22;5536471;32;34779;-86
2022/05/31 05:52:07;;;;;;;4.30;3.90;;;;;;;27.24;36.58;100433.41;5539008;32;33615;-87
2022/05/31 05:55:14;;;;;;;4.57;3.58;;;;;;;26.99;36.90;100429.03;5533250;32;33973;-87
2022/05/31 05:58:22;;;;;;;3.45;3.08;;;;;;;28.25;34.21;100435.69;5542620;32;32882;-86
2022/05/31 06:01:52;;;;;;;4.70;3.67;;;;;;;29.31;31.30;100433.31;5516784;32;32994;-91
2022/05/31 06:05:35;;;;;;;5.50;3.60;;;;;;;30.39;28.97;100431.16;5513502;32;33779;-87
2022/05/31 06:08:43;;;;;;;3.10;2.80;;;;;;;29.75;30.59;100427.72;5530484;32;33953;-87
2022/05/31 06:12:05;;;;;;;3.85;3.28;;;;;;;31.30;28.90;100435.47;5525212;32;34939;-88
2022/05/31 06:15:13;;;;;;;3.40;3.10;;;;;;;30.07;29.22;100435.44;5519788;32;33572;-88
2022/05/31 06:18:20;;;;;;;2.92;2.72;;;;;;;32.10;27.48;100436.31;5516440;32;33910;-88
2022/05/31 06:21:25;;;;;;;2.70;2.50;;;;;;;29.36;29.62;100432.72;5519439;32;33873;-88
2022/05/31 06:24:33;;;;;;;3.10;2.78;;;;;;;31.15;27.72;100436.53;5519344;32;34223;-88
2022/05/31 06:27:38;;;;;;;2.85;2.62;;;;;;;32.42;27.12;100435.56;5520990;32;33917;-87
2022/05/31 06:30:41;;;;;;;4.25;2.53;;;;;;;32.99;25.51;100437.50;5523298;32;33827;-87
2022/05/31 06:33:44;;;;;;;3.95;2.85;;;;;;;33.46;25.53;100434.28;5528263;32;33563;-89
2022/05/31 06:36:47;;;;;;;4.40;2.62;;;;;;;32.01;26.98;100432.97;5528457;32;33981;-87
2022/05/31 06:39:50;;;;;;;4.90;3.80;;;;;;;28.46;31.79;100436.75;5529457;32;33596;-90
2022/05/31 06:42:54;;;;;;;7.55;3.67;;;;;;;26.30;34.39;100440.75;5528324;32;34906;-86
2022/05/31 06:46:08;;;;;;;4.40;3.50;;;;;;;23.38;41.47;100445.03;5516504;32;32395;-87
2022/05/31 06:49:14;;;;;;;5.10;3.67;;;;;;;22.47;43.60;100447.75;5513451;32;34540;-86
2022/05/31 06:59:05;;;;;;;5.90;4.07;;;;;;;25.36;38.96;100450.34;5516662;32;33825;-87
2022/05/31 07:02:08;;;;;;;7.30;4.10;;;;;;;25.22;39.57;100454.59;5513969;32;32739;-89
2022/05/31 07:05:12;;;;;;;5.87;4.40;;;;;;;25.67;38.41;100457.78;5526128;32;35097;-87
2022/05/31 07:08:15;;;;;;;6.15;4.20;;;;;;;25.08;38.61;100445.28;5526625;32;33460;-89
2022/05/31 07:11:26;;;;;;;6.57;4.00;;;;;;;24.87;39.59;100449.34;5524391;32;32111;-87
2022/05/31 07:14:34;;;;;;;5.55;3.60;;;;;;;24.40;39.99;100443.50;5516901;32;33978;-87
2022/05/31 07:17:39;;;;;;;4.30;3.15;;;;;;;24.68;39.87;100439.66;5512285;32;33967;-86
2022/05/31 07:20:44;;;;;;;9.65;3.30;;;;;;;24.36;39.04;100436.72;5525530;32;34566;-88
2022/05/31 07:23:46;;;;;;;6.03;3.62;;;;;;;24.13;39.58;100437.31;5520438;32;33989;-88
2022/05/31 07:26:50;;;;;;;4.80;3.60;;;;;;;24.11;39.78;100438.47;5522083;32;34159;-87
2022/05/31 07:29:54;;;;;;;8.25;3.60;;;;;;;24.22;40.04;100443.59;5522289;32;34797;-88
2022/05/31 07:32:57;;;;;;;3.62;3.20;;;;;;;24.61;39.28;100445.75;5526538;32;34182;-87
2022/05/31 07:36:21;;;;;;;5.90;3.25;;;;;;;24.85;39.43;100451.38;5515439;32;34468;-89
2022/05/31 07:39:25;;;;;;;4.20;3.30;;;;;;;24.46;39.36;100455.53;5511916;32;35598;-88
2022/05/31 07:42:29;;;;;;;4.90;3.55;;;;;;;24.56;39.06;100442.69;5517083;32;34549;-89
2022/05/31 07:45:32;;;;;;;4.30;3.08;;;;;;;24.73;37.03;100446.25;5536271;26;35152;-89
2022/05/31 07:48:37;;;;;;;3.87;3.28;;;;;;;25.18;37.08;100445.94;5521107;32;34497;-90
2022/05/31 07:51:42;;;;;;;5.90;3.62;;;;;;;23.96;38.99;100445.38;5520571;32;34431;-90
2022/05/31 07:54:51;;;;;;;4.13;3.10;;;;;;;23.92;38.30;100451.25;5516867;32;33815;-88
2022/05/31 08:01:25;;;;;;;3.42;3.12;;;;;;;25.14;36.92;100453.59;5521647;32;34294;-92
2022/05/31 08:04:30;;;;;;;5.70;3.28;;;;;;;24.07;37.78;100452.38;5525972;32;33519;-89
2022/05/31 08:07:32;;;;;;;5.10;3.67;;;;;;;22.92;41.62;100457.84;5527272;32;35012;-88
2022/05/31 08:10:36;;;;;;;7.95;3.92;;;;;;;22.46;43.00;100456.00;5528436;32;33719;-88
2022/05/31 08:13:39;;;;;;;7.53;5.32;;;;;;;22.92;42.10;100461.38;5526788;32;33313;-87
2022/05/31 08:16:42;;;;;;;7.07;5.05;;;;;;;22.83;41.23;100457.75;5528600;32;33769;-87
2022/05/31 08:19:45;;;;;;;6.10;4.68;;;;;;;23.00;41.36;100457.91;5528863;32;33848;-88
2022/05/31 08:22:48;;;;;;;8.00;4.37;;;;;;;22.92;43.31;100463.25;5509903;32;34644;-87
2022/05/31 08:25:54;;;;;;;8.65;5.32;;;;;;;24.02;40.42;100465.53;5508834;32;34568;-88
2022/05/31 08:28:57;;;;;;;6.45;4.72;;;;;;;23.80;40.29;100464.25;5509719;32;33949;-89
2022/05/31 08:31:59;;;;;;;8.70;5.12;;;;;;;24.76;38.73;100464.06;5517383;32;34285;-88
2022/05/31 08:35:05;;;;;;;5.32;4.28;;;;;;;24.26;38.24;100463.97;5529215;32;33759;-89
2022/05/31 08:38:11;;;;;;;4.75;4.10;;;;;;;24.46;38.90;100461.81;5547340;32;34925;-88
2022/05/31 08:41:30;;;;;;;6.28;4.35;;;;;;;24.35;38.88;100462.94;5546179;32;33072;-88
2022/05/31 08:44:36;;;;;;;5.68;3.95;;;;;;;23.85;39.67;100456.47;5548058;32;35020;-90
2022/05/31 08:47:42;;;;;;;4.50;3.92;;;;;;;23.69;41.46;100458.06;5531380;32;33820;-89
2022/05/31 08:58:02;;;;;;;8.77;5.20;;;;;;;23.38;42.01;100469.38;5518612;32;33443;-89
2022/05/31 09:01:06;;;;;;;8.32;4.53;;;;;;;24.77;37.91;100458.47;5511836;32;34130;-91
2022/05/31 09:04:19;;;;;;;8.77;4.22;;;;;;;24.84;37.94;100455.13;5510349;32;33477;-93
2022/05/31 09:07:33;;;;;;;6.00;3.70;;;;;;;24.25;39.99;100448.72;5520795;32;33842;-90
2022/05/31 09:10:46;;;;;;;6.65;4.40;;;;;;;25.27;38.76;100455.78;5525922;32;34831;-89
2022/05/31 09:14:22;;;;;;;8.88;4.10;;;;;;;25.05;37.64;100460.06;5524818;32;34318;-90
2022/05/31 09:17:45;;;;;;;7.50;4.20;;;;;;;24.24;39.30;100452.44;5516699;32;35028;-88
2022/05/31 09:20:53;;;;;;;7.93;4.28;;;;;;;23.44;40.80;100454.41;5531735;32;32746;-89
2022/05/31 09:23:56;;;;;;;6.82;4.00;;;;;;;23.08;42.28;100451.72;5530625;32;32861;-89
2022/05/31 09:27:20;;;;;;;9.52;4.03;;;;;;;22.89;42.41;100445.50;5519104;32;33926;-88
2022/05/31 09:30:28;;;;;;;8.57;3.78;;;;;;;22.20;44.07;100446.81;5519694;32;34389;-88
2022/05/31 09:33:42;;;;;;;4.95;3.87;;;;;;;22.66;43.91;100447.78;5517609;32;32256;-90
2022/05/31 09:36:52;;;;;;;4.80;4.20;;;;;;;22.22;45.07;100452.03;5530313;32;34174;-90
2022/05/31 09:40:32;;;;;;;5.55;3.62;;;;;;;22.06;44.40;100441.88;5529049;32;34408;-89
2022/05/31 09:44:06;;;;;;;6.65;4.00;;;;;;;23.34;42.35;100448.22;5523895;32;33473;-89
2022/05/31 09:47:24;;;;;;;4.53;3.85;;;;;;;23.18;42.01;100449.75;5504886;32;32698;-87
2022/05/31 09:50:29;;;;;;;10.80;4.22;;;;;;;22.87;43.09;100448.34;5513400;32;34649;-90
2022/05/31 09:57:08;;;;;;;9.02;4.07;;;;;;;21.49;47.41;100443.66;5520120;32;34078;-87
2022/05/31 10:00:20;;;;;;;5.95;4.37;;;;;;;22.30;46.00;100441.34;5522998;32;33208;-88
2022/05/31 10:03:36;;;;;;;6.72;3.80;;;;;;;22.73;44.72;100433.50;5519377;32;33788;-89
2022/05/31 10:07:10;;;;;;;4.62;4.12;;;;;;;22.63;44.76;100438.16;5521865;32;34938;-88
2022/05/31 10:10:22;;;;;;;5.45;3.75;;;;;;;22.90;43.76;100433.66;5514957;32;32911;-88
2022/05/31 10:13:35;;;;;;;6.55;3.83;;;;;;;23.09;43.29;100423.66;5534783;32;33849;-90
2022/05/31 10:16:38;;;;;;;7.05;4.05;;;;;;;22.96;44.07;100424.91;5517669;32;33871;-88
2022/05/31 10:19:41;;;;;;;6.15;3.58;;;;;;;22.72;44.71;100430.94;5530131;32;34517;-86
2022/05/31 10:22:50;;;;;;;5.70;3.40;;;;;;;22.18;46.21;100426.34;5532378;32;34096;-87
2022/05/31 10:25:58;;;;;;;6.75;3.20;;;;;;;22.67;45.71;100431.41;5526178;32;34272;-85
2022/05/31 10:29:10;;;;;;;5.65;3.90;;;;;;;22.92;45.10;100420.81;5530220;32;34126;-86
2022/05/31 10:32:33;;;;;;;11.48;4.18;;;;;;;23.76;43.21;100424.94;5529528;32;34147;-86
2022/05/31 10:35:39;;;;;;;12.00;4.50;;;;;;;23.94;42.41;100416.75;5543936;32;34092;-86
2022/05/31 10:38:46;;;;;;;7.55;4.07;;;;;;;23.40;43.28;100424.09;5542457;32;35327;-87
2022/05/31 10:41:52;;;;;;;3.75;3.10;;;;;;;23.53;42.70;100420.09;5523955;32;34015;-86
2022/05/31 10:45:02;;;;;;;6.97;3.75;;;;;;;24.08;42.50;100420.69;5523649;32;34058;-86
2022/05/31 10:48:05;;;;;;;7.55;4.07;;;;;;;23.57;43.16;100424.16;5521441;32;33715;-85
2022/05/31 10:51:16;;;;;;;9.10;4.40;;;;;;;23.00;44.88;100425.44;5535058;32;33524;-85
2022/05/31 10:54:42;;;;;;;8.85;4.40;;;;;;;22.82;46.42;100415.50;5520824;32;34189;-87
2022/05/31 10:57:56;;;;;;;7.60;4.07;;;;;;;22.56;45.43;100416.28;5526456;32;33623;-91
2022/05/31 11:01:27;;;;;;;12.90;4.90;;;;;;;23.60;44.21;100412.16;5528241;32;34031;-87
2022/05/31 11:04:47;;;;;;;5.45;4.30;;;;;;;23.93;42.25;100412.34;5520404;32;34379;-87
2022/05/31 11:11:30;;;;;;;7.07;4.62;;;;;;;25.35;39.47;100408.78;5518953;32;34820;-89
2022/05/31 11:15:18;;;;;;;7.32;4.95;;;;;;;24.40;40.67;100416.41;5524170;32;34491;-86
2022/05/31 11:18:37;;;;;;;10.18;5.62;;;;;;;23.77;42.40;100411.25;5525043;32;33704;-85
2022/05/31 11:21:48;;;;;;;9.68;5.75;;;;;;;23.68;43.20;100415.78;5520974;32;33118;-90
2022/05/31 11:25:12;;;;;;;6.87;5.10;;;;;;;23.50;43.15;100405.03;5522663;32;34480;-86
2022/05/31 11:28:53;;;;;;;7.87;5.28;;;;;;;23.74;42.85;100406.13;5519733;32;33854;-86
2022/05/31 11:32:11;;;;;;;8.60;5.07;;;;;;;24.19;41.64;100397.88;5482090;32;34181;-86
2022/05/31 11:35:19;;;;;;;8.15;5.35;;;;;;;24.85;40.17;100386.28;5540431;32;33952;-86
2022/05/31 11:38:33;;;;;;;12.27;5.87;;;;;;;25.63;39.04;100389.37;5534335;32;34275;-86
2022/05/31 11:42:05;;;;;;;8.57;5.80;;;;;;;25.62;38.42;100386.81;5547247;32;34961;-87
2022/05/31 11:45:29;;;;;;;19.95;5.68;;;;;;;25.10;39.40;100391.69;5523933;32;34215;-88
2022/05/31 11:48:59;;;;;;;6.18;5.47;;;;;;;25.00;39.07;100394.59;5524629;32;35093;-91
2022/05/31 11:52:16;;;;;;;8.18;4.95;;;;;;;24.94;40.33;100377.09;5517231;32;33783;-87
2022/05/31 11:55:34;;;;;;;16.45;5.20;;;;;;;25.33;38.93;100378.22;5532219;32;34010;-88
2022/05/31 11:58:54;;;;;;;8.77;5.43;;;;;;;25.41;39.23;100378.22;5521939;32;34489;-87
2022/05/31 12:02:30;;;;;;;8.85;4.80;;;;;;;24.87;40.03;100376.97;5522200;32;34521;-87
2022/05/31 12:05:45;;;;;;;7.07;5.20;;;;;;;24.38;40.53;100376.91;5522611;32;34450;-87
2022/05/31 12:08:53;;;;;;;9.48;4.80;;;;;;;23.74;41.08;100370.09;5530095;32;34172;-87
2022/05/31 12:12:03;;;;;;;14.80;4.93;;;;;;;23.98;41.80;100363.09;5521621;32;32118;-88
2022/05/31 12:15:18;;;;;;;7.05;4.45;;;;;;;24.09;41.24;100374.47;5540214;32;33914;-87
2022/05/31 12:18:34;;;;;;;14.75;4.40;;;;;;;24.68;39.44;100369.16;5535894;32;34597;-91
2022/05/31 12:21:43;;;;;;;37.05;5.45;;;;;;;24.60;39.31;100361.84;5528658;32;33818;-87
2022/05/31 12:24:54;;;;;;;7.35;4.20;;;;;;;24.74;39.05;100358.44;5530278;32;33899;-86
2022/05/31 12:28:22;;;;;;;11.18;3.85;;;;;;;24.57;39.33;100344.06;5532633;32;33905;-87
2022/05/31 12:31:28;;;;;;;4.10;3.58;;;;;;;24.61;38.25;100345.41;5530013;32;32701;-87
2022/05/31 12:34:31;;;;;;;5.18;3.80;;;;;;;24.56;39.25;100346.94;5517308;32;33815;-87
2022/05/31 12:38:07;;;;;;;6.30;3.87;;;;;;;24.23;39.62;100336.91;5516124;32;33835;-86
2022/05/31 12:41:42;;;;;;;8.95;3.62;;;;;;;24.06;39.68;100341.41;5513137;32;32862;-86
2022/05/31 12:44:48;;;;;;;4.55;3.45;;;;;;;23.84;40.09;100335.63;5518682;32;33921;-87
2022/05/31 12:47:57;;;;;;;7.47;3.92;;;;;;;23.35;41.04;100331.69;5507721;32;32339;-86
2022/05/31 12:51:00;;;;;;;3.97;3.28;;;;;;;23.63;40.90;100325.22;5522849;32;33819;-87
2022/05/31 12:54:08;;;;;;;4.87;3.70;;;;;;;23.62;40.78;100321.66;5523734;32;33581;-87
2022/05/31 13:01:03;;;;;;;8.27;4.10;;;;;;;23.87;39.89;100329.00;5526712;32;34160;-87
2022/05/31 13:04:28;;;;;;;10.02;3.67;;;;;;;23.01;42.32;100314.41;5524672;32;34164;-86
2022/05/31 13:07:43;;;;;;;11.18;3.83;;;;;;;22.93;41.65;100319.75;5516648;32;34472;-85
2022/05/31 13:24:54;;;;;;;7.65;3.33;;;;;;;23.57;42.19;100296.09;5496394;32;32170;-88
2022/05/31 13:28:00;;;;;;;6.93;3.40;;;;;;;23.03;41.20;100295.28;5531327;32;33580;-88
2022/05/31 13:31:21;;;;;;;4.82;3.30;;;;;;;23.22;41.27;100290.66;5524585;32;34679;-87
2022/05/31 13:34:29;;;;;;;4.25;3.72;;;;;;;23.39;41.40;100284.34;5505475;32;34339;-87
2022/05/31 13:37:32;;;;;;;5.18;4.03;;;;;;;23.72;41.27;100280.06;5525819;32;33510;-88
2022/05/31 13:40:40;;;;;;;8.15;4.50;;;;;;;23.74;41.27;100275.31;5512346;32;32386;-88
2022/05/31 13:43:50;;;;;;;7.62;3.60;;;;;;;23.63;41.14;100281.91;5526834;32;33910;-88
2022/05/31 13:46:53;;;;;;;6.60;4.50;;;;;;;23.81;40.36;100268.22;5528771;32;33765;-87
2022/05/31 13:50:05;;;;;;;7.35;4.72;;;;;;;23.63;41.14;100277.31;5517474;32;33529;-87
2022/05/31 13:53:11;;;;;;;5.65;4.65;;;;;;;23.62;40.65;100289.16;5528435;32;34356;-87
2022/05/31 13:56:24;;;;;;;7.60;4.70;;;;;;;23.60;40.99;100280.38;5531098;32;34448;-87
2022/05/31 13:59:43;;;;;;;5.85;5.12;;;;;;;23.74;41.09;100278.03;5531231;32;33928;-89
2022/05/31 14:02:49;;;;;;;7.47;5.80;;;;;;;23.76;41.78;100274.16;5520869;32;32711;-88
2022/05/31 14:06:02;;;;;;;7.65;5.78;;;;;;;23.36;42.03;100275.69;5530677;32;33684;-88
2022/05/31 14:09:07;;;;;;;7.35;6.10;;;;;;;23.15;41.85;100268.81;5529142;32;33988;-92
2022/05/31 14:12:10;;;;;;;9.85;6.05;;;;;;;22.99;42.68;100272.28;5526130;32;34356;-90
2022/05/31 14:15:31;;;;;;;9.68;6.10;;;;;;;23.00;42.41;100265.88;5531161;32;33548;-86
2022/05/31 14:18:39;;;;;;;10.32;6.43;;;;;;;23.27;41.94;100251.28;5536207;32;34160;-88
2022/05/31 14:21:45;;;;;;;10.25;7.05;;;;;;;23.66;41.97;100259.91;5526251;32;34756;-88
2022/05/31 14:24:50;;;;;;;10.18;6.35;;;;;;;23.52;42.58;100251.41;5519547;32;34346;-88
2022/05/31 14:27:53;;;;;;;7.57;6.40;;;;;;;23.44;42.71;100248.69;5588623;26;34013;-88
2022/05/31 14:30:59;;;;;;;10.43;6.57;;;;;;;23.19;43.04;100245.84;5547317;32;33311;-88
2022/05/31 14:34:05;;;;;;;11.45;6.20;;;;;;;23.33;42.60;100246.28;5534597;32;32967;-87
2022/05/31 14:37:11;;;;;;;9.02;6.53;;;;;;;23.55;42.42;100240.22;5524728;32;32677;-87
2022/05/31 14:40:27;;;;;;;6.45;5.37;;;;;;;23.24;42.92;100232.66;5542674;32;34202;-87
2022/05/31 14:43:34;;;;;;;10.05;5.60;;;;;;;23.62;42.34;100229.59;5548410;32;34044;-87
2022/05/31 14:46:38;;;;;;;5.95;4.90;;;;;;;23.29;43.23;100234.91;5548917;32;34896;-87
2022/05/31 14:49:46;;;;;;;6.35;4.80;;;;;;;23.63;43.20;100222.34;5550779;32;34336;-87
2022/05/31 14:52:52;;;;;;;9.40;4.95;;;;;;;23.59;43.38;100229.09;5558083;32;35134;-87
2022/05/31 14:55:55;;;;;;;4.65;3.92;;;;;;;23.56;43.42;100227.56;5559720;31;33963;-87
2022/05/31 14:59:01;;;;;;;4.78;4.07;;;;;;;23.59;43.00;100224.53;5557168;31;34831;-87
2022/05/31 15:02:17;;;;;;;5.85;4.60;;;;;;;23.18;43.89;100221.66;5537150;32;33593;-87
2022/05/31 15:05:26;;;;;;;5.72;3.92;;;;;;;23.46;42.50;100219.59;5533420;32;34097;-87
2022/05/31 15:08:42;;;;;;;4.85;3.60;;;;;;;23.42;43.07;100219.06;5528833;32;34438;-87
2022/05/31 15:19:03;;;;;;;4.18;3.10;;;;;;;23.10;43.55;100209.81;5532214;32;33395;-87
2022/05/31 15:22:07;;;;;;;3.15;2.58;;;;;;;23.16;42.95;100205.59;5556067;32;33801;-87
2022/05/31 15:25:20;;;;;;;3.78;2.62;;;;;;;22.80;43.88;100205.75;5545490;32;34951;-87
2022/05/31 15:28:24;;;;;;;5.10;2.55;;;;;;;22.03;46.11;100207.22;5533237;32;33680;-87
2022/05/31 15:31:39;;;;;;;3.65;2.80;;;;;;;22.32;45.18;100201.53;5546808;32;34801;-87
2022/05/31 15:35:02;;;;;;;3.20;2.40;;;;;;;22.67;44.73;100198.94;5539190;32;33292;-87
2022/05/31 15:38:25;;;;;;;2.67;2.17;;;;;;;22.56;44.45;100191.94;5542112;32;33672;-87
2022/05/31 15:41:29;;;;;;;2.75;2.30;;;;;;;22.42;45.40;100197.91;5542020;32;33158;-88
2022/05/31 15:44:33;;;;;;;4.53;1.90;;;;;;;22.51;45.91;100199.66;5536515;32;33568;-87
2022/05/31 15:47:36;;;;;;;2.80;2.03;;;;;;;22.63;45.07;100197.56;5528873;32;32378;-90
2022/05/31 15:50:38;;;;;;;2.92;1.95;;;;;;;22.35;46.60;100198.53;5526731;32;33115;-91
2022/05/31 15:53:41;;;;;;;4.55;2.17;;;;;;;22.36;45.86;100199.38;5548645;32;35311;-90
2022/05/31 15:56:45;;;;;;;2.08;1.87;;;;;;;21.99;46.80;100201.31;5543540;32;35207;-90
2022/05/31 15:59:48;;;;;;;5.72;2.37;;;;;;;21.84;47.50;100208.22;5551242;32;34089;-88
2022/05/31 16:02:51;;;;;;;6.80;2.40;;;;;;;21.72;47.70;100203.06;5539590;32;33824;-86
